sensor_id;sensor_type;location;lat;lon;timestamp;pressure;altitude;pressure_sealevel;temperature;humidity
550;BME280;20066;48.764;9.176;2022-12-29T00:00:22;97769.78;;;11.43;54.14
550;BME280;20066;48.764;9.176;2022-12-29T00:02:51;97769.91;;;11.33;53.44
550;BME280;20066;48.764;9.176;2022-12-29T00:05:19;97768.41;;;11.69;53.38
550;BME280;20066;48.764;9.176;2022-12-29T00:07:47;97771.88;;;11.73;53.18
550;BME280;20066;48.764;9.176;2022-12-29T00:10:14;97769.97;;;11.67;52.71
550;BME280;20066;48.764;9.176;2022-12-29T00:12:42;97774.25;;;11.64;53.49
550;BME280;20066;48.764;9.176;2022-12-29T00:15:27;97767.06;;;11.88;52.74
550;BME280;20066;48.764;9.176;2022-12-29T00:18:06;97758.47;;;12.00;52.37
550;BME280;20066;48.764;9.176;2022-12-29T00:20:34;97751.50;;;12.03;52.22
550;BME280;20066;48.764;9.176;2022-12-29T00:23:20;97746.38;;;11.81;52.28
550;BME280;20066;48.764;9.176;2022-12-29T00:26:11;97742.09;;;12.14;51.90
550;BME280;20066;48.764;9.176;2022-12-29T00:28:58;97740.31;;;11.70;52.34
550;BME280;20066;48.764;9.176;2022-12-29T00:31:43;97736.09;;;11.28;53.95
550;BME280;20066;48.764;9.176;2022-12-29T00:34:30;97734.00;;;11.84;52.14
550;BME280;20066;48.764;9.176;2022-12-29T00:37:15;97729.75;;;11.86;52.54
550;BME280;20066;48.764;9.176;2022-12-29T00:39:43;97738.06;;;11.99;52.02
550;BME280;20066;48.764;9.176;2022-12-29T00:42:29;97737.69;;;11.22;53.77
550;BME280;20066;48.764;9.176;2022-12-29T00:45:14;97732.75;;;11.92;53.05
550;BME280;20066;48.764;9.176;2022-12-29T00:47:43;97731.22;;;11.91;52.10
550;BME280;20066;48.764;9.176;2022-12-29T00:50:12;97730.66;;;12.07;52.02
550;BME280;20066;48.764;9.176;2022-12-29T00:52:39;97725.63;;;12.09;51.60
550;BME280;20066;48.764;9.176;2022-12-29T00:55:07;97730.63;;;11.76;53.27
550;BME280;20066;48.764;9.176;2022-12-29T00:57:35;97723.59;;;11.48;52.47
550;BME280;20066;48.764;9.176;2022-12-29T01:00:03;97730.91;;;11.85;51.37
550;BME280;20066;48.764;9.176;2022-12-29T01:02:31;97732.91;;;11.40;53.15
550;BME280;20066;48.764;9.176;2022-12-29T01:04:59;97740.22;;;11.81;52.13
550;BME280;20066;48.764;9.176;2022-12-29T01:07:28;97734.28;;;12.23;50.93
550;BME280;20066;48.764;9.176;2022-12-29T01:09:55;97736.28;;;12.19;51.16
550;BME280;20066;48.764;9.176;2022-12-29T01:12:37;97739.06;;;12.12;51.30
550;BME280;20066;48.764;9.176;2022-12-29T01:15:10;97737.13;;;12.13;51.07
550;BME280;20066;48.764;9.176;2022-12-29T01:17:38;97749.69;;;12.53;50.27
550;BME280;20066;48.764;9.176;2022-12-29T01:20:06;97751.97;;;12.28;50.83
550;BME280;20066;48.764;9.176;2022-12-29T01:22:35;97742.53;;;11.79;51.69
550;BME280;20066;48.764;9.176;2022-12-29T01:25:04;97751.13;;;12.61;50.05
550;BME280;20066;48.764;9.176;2022-12-29T01:27:33;97747.28;;;11.68;51.91
550;BME280;20066;48.764;9.176;2022-12-29T01:30:00;97750.19;;;12.14;50.57
550;BME280;20066;48.764;9.176;2022-12-29T01:32:28;97746.63;;;11.90;51.19
550;BME280;20066;48.764;9.176;2022-12-29T01:34:56;97747.25;;;12.62;49.84
550;BME280;20066;48.764;9.176;2022-12-29T01:37:23;97745.88;;;12.51;50.09
550;BME280;20066;48.764;9.176;2022-12-29T01:39:53;97749.28;;;12.82;49.38
550;BME280;20066;48.764;9.176;2022-12-29T01:42:24;97744.09;;;12.67;49.27
550;BME280;20066;48.764;9.176;2022-12-29T01:44:54;97744.78;;;12.45;50.50
550;BME280;20066;48.764;9.176;2022-12-29T01:47:35;97748.22;;;13.02;48.94
550;BME280;20066;48.764;9.176;2022-12-29T01:50:12;97752.38;;;13.07;48.93
550;BME280;20066;48.764;9.176;2022-12-29T01:52:49;97752.34;;;13.10;48.74
550;BME280;20066;48.764;9.176;2022-12-29T01:55:24;97750.41;;;12.84;49.80
550;BME280;20066;48.764;9.176;2022-12-29T01:57:54;97741.84;;;12.62;49.96
550;BME280;20066;48.764;9.176;2022-12-29T02:00:23;97746.09;;;12.90;49.76
550;BME280;20066;48.764;9.176;2022-12-29T02:02:52;97742.81;;;13.02;49.21
550;BME280;20066;48.764;9.176;2022-12-29T02:05:26;97736.53;;;13.32;49.04
550;BME280;20066;48.764;9.176;2022-12-29T02:07:56;97733.31;;;12.94;49.45
550;BME280;20066;48.764;9.176;2022-12-29T02:10:28;97726.78;;;11.77;52.34
550;BME280;20066;48.764;9.176;2022-12-29T02:12:57;97726.06;;;12.61;51.14
550;BME280;20066;48.764;9.176;2022-12-29T02:15:34;97716.81;;;12.35;50.28
550;BME280;20066;48.764;9.176;2022-12-29T02:18:13;97713.09;;;11.95;52.37
550;BME280;20066;48.764;9.176;2022-12-29T02:21:32;97712.75;;;12.50;50.72
550;BME280;20066;48.764;9.176;2022-12-29T02:27:24;97715.19;;;12.95;49.42
550;BME280;20066;48.764;9.176;2022-12-29T02:30:07;97713.72;;;12.87;49.97
550;BME280;20066;48.764;9.176;2022-12-29T02:32:43;97713.16;;;12.99;50.07
550;BME280;20066;48.764;9.176;2022-12-29T02:35:17;97720.50;;;12.98;50.05
550;BME280;20066;48.764;9.176;2022-12-29T02:37:56;97707.38;;;13.00;50.04
550;BME280;20066;48.764;9.176;2022-12-29T02:40:33;97715.63;;;12.09;51.19
550;BME280;20066;48.764;9.176;2022-12-29T02:43:11;97706.38;;;12.07;51.19
550;BME280;20066;48.764;9.176;2022-12-29T02:45:48;97704.91;;;11.72;51.75
550;BME280;20066;48.764;9.176;2022-12-29T02:48:24;97698.88;;;11.57;52.56
550;BME280;20066;48.764;9.176;2022-12-29T02:50:59;97690.34;;;12.26;51.52
550;BME280;20066;48.764;9.176;2022-12-29T02:53:29;97691.22;;;12.20;51.06
550;BME280;20066;48.764;9.176;2022-12-29T02:56:15;97693.81;;;12.54;49.86
550;BME280;20066;48.764;9.176;2022-12-29T02:58:43;97697.97;;;12.31;50.97
550;BME280;20066;48.764;9.176;2022-12-29T03:01:22;97690.81;;;11.91;51.47
550;BME280;20066;48.764;9.176;2022-12-29T03:04:03;97695.72;;;12.53;50.85
550;BME280;20066;48.764;9.176;2022-12-29T03:06:50;97692.41;;;12.96;49.38
550;BME280;20066;48.764;9.176;2022-12-29T03:09:28;97693.44;;;12.52;51.04
550;BME280;20066;48.764;9.176;2022-12-29T03:12:06;97688.44;;;11.96;52.33
550;BME280;20066;48.764;9.176;2022-12-29T03:14:44;97700.06;;;12.20;51.58
550;BME280;20066;48.764;9.176;2022-12-29T03:17:40;97698.88;;;12.21;51.63
550;BME280;20066;48.764;9.176;2022-12-29T03:20:16;97685.41;;;11.91;52.00
550;BME280;20066;48.764;9.176;2022-12-29T03:22:49;97685.28;;;12.02;51.35
550;BME280;20066;48.764;9.176;2022-12-29T03:25:22;97682.59;;;11.71;52.68
550;BME280;20066;48.764;9.176;2022-12-29T03:27:55;97672.00;;;11.87;52.08
550;BME280;20066;48.764;9.176;2022-12-29T03:30:24;97667.47;;;11.81;52.46
550;BME280;20066;48.764;9.176;2022-12-29T03:32:57;97665.53;;;11.81;52.27
550;BME280;20066;48.764;9.176;2022-12-29T03:35:29;97662.88;;;11.78;52.33
550;BME280;20066;48.764;9.176;2022-12-29T03:37:59;97665.38;;;11.92;51.73
550;BME280;20066;48.764;9.176;2022-12-29T03:40:31;97663.75;;;11.98;52.08
550;BME280;20066;48.764;9.176;2022-12-29T03:43:01;97660.72;;;11.96;52.08
550;BME280;20066;48.764;9.176;2022-12-29T03:45:30;97654.09;;;12.01;52.07
550;BME280;20066;48.764;9.176;2022-12-29T03:47:57;97657.84;;;12.10;52.25
550;BME280;20066;48.764;9.176;2022-12-29T03:55:58;97636.75;;;12.28;51.92
550;BME280;20066;48.764;9.176;2022-12-29T03:58:25;97643.28;;;12.31;52.51
550;BME280;20066;48.764;9.176;2022-12-29T04:00:53;97642.50;;;12.57;52.01
550;BME280;20066;48.764;9.176;2022-12-29T04:03:21;97645.97;;;12.31;52.62
550;BME280;20066;48.764;9.176;2022-12-29T04:05:49;97662.31;;;12.47;51.71
550;BME280;20066;48.764;9.176;2022-12-29T04:08:16;97663.75;;;12.52;51.67
550;BME280;20066;48.764;9.176;2022-12-29T04:10:44;97663.50;;;12.19;52.71
550;BME280;20066;48.764;9.176;2022-12-29T04:13:13;97658.19;;;11.82;53.73
550;BME280;20066;48.764;9.176;2022-12-29T04:15:42;97650.06;;;11.85;53.34
550;BME280;20066;48.764;9.176;2022-12-29T04:18:10;97658.34;;;12.02;53.22
550;BME280;20066;48.764;9.176;2022-12-29T04:20:38;97663.41;;;11.96;53.79
550;BME280;20066;48.764;9.176;2022-12-29T04:23:23;97668.66;;;12.07;53.88
550;BME280;20066;48.764;9.176;2022-12-29T04:25:51;97688.63;;;12.66;52.14
550;BME280;20066;48.764;9.176;2022-12-29T04:28:20;97699.69;;;12.45;52.89
550;BME280;20066;48.764;9.176;2022-12-29T04:30:48;97697.78;;;12.46;52.43
550;BME280;20066;48.764;9.176;2022-12-29T04:33:17;97690.72;;;11.98;54.36
550;BME280;20066;48.764;9.176;2022-12-29T04:35:45;97683.34;;;12.02;54.33
550;BME280;20066;48.764;9.176;2022-12-29T04:38:14;97674.22;;;11.92;55.05
550;BME280;20066;48.764;9.176;2022-12-29T04:40:43;97664.13;;;12.00;55.42
550;BME280;20066;48.764;9.176;2022-12-29T04:43:10;97668.56;;;12.14;54.63
550;BME280;20066;48.764;9.176;2022-12-29T04:45:42;97663.81;;;12.21;54.26
550;BME280;20066;48.764;9.176;2022-12-29T04:48:10;97658.53;;;12.14;54.99
550;BME280;20066;48.764;9.176;2022-12-29T04:50:38;97671.16;;;12.48;53.76
550;BME280;20066;48.764;9.176;2022-12-29T04:53:06;97672.31;;;12.47;54.04
550;BME280;20066;48.764;9.176;2022-12-29T04:55:34;97682.19;;;12.30;54.89
550;BME280;20066;48.764;9.176;2022-12-29T04:58:02;97682.38;;;12.69;54.07
550;BME280;20066;48.764;9.176;2022-12-29T05:00:30;97684.19;;;12.26;55.19
550;BME280;20066;48.764;9.176;2022-12-29T05:02:59;97677.91;;;12.59;53.92
550;BME280;20066;48.764;9.176;2022-12-29T05:05:27;97685.22;;;12.35;54.75
550;BME280;20066;48.764;9.176;2022-12-29T05:07:55;97685.78;;;12.50;53.84
550;BME280;20066;48.764;9.176;2022-12-29T05:10:24;97671.66;;;12.39;54.96
550;BME280;20066;48.764;9.176;2022-12-29T05:12:52;97680.72;;;12.52;54.73
550;BME280;20066;48.764;9.176;2022-12-29T05:15:19;97672.41;;;12.13;55.30
550;BME280;20066;48.764;9.176;2022-12-29T05:17:47;97674.81;;;12.07;56.26
550;BME280;20066;48.764;9.176;2022-12-29T05:20:16;97679.41;;;12.37;55.10
550;BME280;20066;48.764;9.176;2022-12-29T05:22:44;97667.91;;;12.33;54.62
550;BME280;20066;48.764;9.176;2022-12-29T05:25:12;97669.78;;;12.36;55.06
550;BME280;20066;48.764;9.176;2022-12-29T05:27:39;97659.75;;;12.36;55.15
550;BME280;20066;48.764;9.176;2022-12-29T05:30:08;97668.50;;;12.44;55.06
550;BME280;20066;48.764;9.176;2022-12-29T05:32:36;97663.06;;;12.21;55.73
550;BME280;20066;48.764;9.176;2022-12-29T05:35:05;97666.28;;;12.12;55.92
550;BME280;20066;48.764;9.176;2022-12-29T05:37:34;97673.00;;;12.27;55.75
550;BME280;20066;48.764;9.176;2022-12-29T05:40:02;97669.59;;;12.23;55.14
550;BME280;20066;48.764;9.176;2022-12-29T05:42:30;97681.03;;;12.58;54.74
550;BME280;20066;48.764;9.176;2022-12-29T05:44:58;97665.16;;;12.36;55.23
550;BME280;20066;48.764;9.176;2022-12-29T05:47:26;97667.22;;;12.52;54.84
550;BME280;20066;48.764;9.176;2022-12-29T05:49:57;97664.31;;;12.13;55.52
550;BME280;20066;48.764;9.176;2022-12-29T05:52:24;97669.88;;;12.02;56.40
550;BME280;20066;48.764;9.176;2022-12-29T05:54:54;97667.53;;;12.58;54.68
550;BME280;20066;48.764;9.176;2022-12-29T05:57:21;97669.22;;;12.21;54.82
550;BME280;20066;48.764;9.176;2022-12-29T05:59:49;97662.78;;;11.85;55.76
550;BME280;20066;48.764;9.176;2022-12-29T06:02:17;97669.53;;;12.54;53.92
550;BME280;20066;48.764;9.176;2022-12-29T06:04:44;97656.97;;;12.67;54.33
550;BME280;20066;48.764;9.176;2022-12-29T06:07:12;97657.16;;;12.29;54.56
550;BME280;20066;48.764;9.176;2022-12-29T06:09:40;97644.44;;;12.30;54.81
550;BME280;20066;48.764;9.176;2022-12-29T06:12:09;97634.53;;;12.23;54.73
550;BME280;20066;48.764;9.176;2022-12-29T06:14:37;97621.66;;;12.08;55.26
550;BME280;20066;48.764;9.176;2022-12-29T06:17:04;97622.69;;;12.17;54.72
550;BME280;20066;48.764;9.176;2022-12-29T06:19:32;97622.06;;;12.06;55.37
550;BME280;20066;48.764;9.176;2022-12-29T06:22:00;97625.31;;;12.21;54.70
550;BME280;20066;48.764;9.176;2022-12-29T06:24:28;97624.81;;;12.29;54.92
550;BME280;20066;48.764;9.176;2022-12-29T06:26:56;97635.81;;;12.42;53.59
550;BME280;20066;48.764;9.176;2022-12-29T06:29:25;97635.16;;;12.34;54.12
550;BME280;20066;48.764;9.176;2022-12-29T06:31:52;97634.69;;;12.40;54.12
550;BME280;20066;48.764;9.176;2022-12-29T06:34:24;97642.09;;;11.78;54.77
550;BME280;20066;48.764;9.176;2022-12-29T06:36:52;97632.97;;;11.69;55.59
550;BME280;20066;48.764;9.176;2022-12-29T06:39:19;97636.47;;;11.66;54.92
550;BME280;20066;48.764;9.176;2022-12-29T06:41:47;97633.78;;;11.96;54.33
550;BME280;20066;48.764;9.176;2022-12-29T06:44:15;97637.47;;;12.06;53.91
550;BME280;20066;48.764;9.176;2022-12-29T06:46:44;97645.94;;;11.77;54.36
550;BME280;20066;48.764;9.176;2022-12-29T06:49:11;97644.91;;;11.98;53.95
550;BME280;20066;48.764;9.176;2022-12-29T06:51:39;97633.34;;;11.67;54.51
550;BME280;20066;48.764;9.176;2022-12-29T06:54:07;97626.50;;;11.59;54.79
550;BME280;20066;48.764;9.176;2022-12-29T06:56:35;97629.97;;;11.59;54.81
550;BME280;20066;48.764;9.176;2022-12-29T06:59:03;97631.78;;;11.70;54.23
550;BME280;20066;48.764;9.176;2022-12-29T07:01:31;97628.94;;;11.50;54.50
550;BME280;20066;48.764;9.176;2022-12-29T07:04:00;97636.66;;;12.09;53.03
550;BME280;20066;48.764;9.176;2022-12-29T07:06:28;97640.06;;;12.13;52.75
550;BME280;20066;48.764;9.176;2022-12-29T07:08:56;97634.41;;;11.77;53.72
550;BME280;20066;48.764;9.176;2022-12-29T07:11:24;97634.72;;;11.82;53.57
550;BME280;20066;48.764;9.176;2022-12-29T07:13:51;97638.91;;;11.87;54.02
550;BME280;20066;48.764;9.176;2022-12-29T07:16:19;97642.38;;;12.14;52.88
550;BME280;20066;48.764;9.176;2022-12-29T07:18:47;97644.66;;;11.55;54.60
550;BME280;20066;48.764;9.176;2022-12-29T07:21:16;97639.00;;;11.80;54.10
550;BME280;20066;48.764;9.176;2022-12-29T07:23:44;97642.53;;;11.73;53.84
550;BME280;20066;48.764;9.176;2022-12-29T07:26:13;97656.53;;;11.91;53.27
550;BME280;20066;48.764;9.176;2022-12-29T07:28:41;97639.94;;;11.63;54.13
550;BME280;20066;48.764;9.176;2022-12-29T07:31:13;97641.88;;;11.66;54.48
550;BME280;20066;48.764;9.176;2022-12-29T07:33:42;97656.66;;;12.38;52.56
550;BME280;20066;48.764;9.176;2022-12-29T07:36:10;97661.19;;;12.95;50.32
550;BME280;20066;48.764;9.176;2022-12-29T07:38:40;97667.69;;;12.47;52.33
550;BME280;20066;48.764;9.176;2022-12-29T07:41:09;97660.13;;;12.38;52.22
550;BME280;20066;48.764;9.176;2022-12-29T07:43:37;97657.59;;;11.97;54.09
550;BME280;20066;48.764;9.176;2022-12-29T07:46:04;97655.06;;;12.14;53.33
550;BME280;20066;48.764;9.176;2022-12-29T07:48:32;97659.47;;;12.04;53.70
550;BME280;20066;48.764;9.176;2022-12-29T07:51:02;97670.34;;;12.51;53.15
550;BME280;20066;48.764;9.176;2022-12-29T07:53:30;97662.25;;;11.97;53.82
550;BME280;20066;48.764;9.176;2022-12-29T07:55:59;97664.31;;;12.13;53.87
550;BME280;20066;48.764;9.176;2022-12-29T07:58:26;97657.00;;;12.13;53.70
550;BME280;20066;48.764;9.176;2022-12-29T08:00:54;97645.16;;;12.07;53.68
550;BME280;20066;48.764;9.176;2022-12-29T08:03:23;97645.81;;;12.15;53.48
550;BME280;20066;48.764;9.176;2022-12-29T08:05:51;97647.94;;;11.73;54.63
550;BME280;20066;48.764;9.176;2022-12-29T08:08:20;97655.91;;;12.11;53.82
550;BME280;20066;48.764;9.176;2022-12-29T08:10:48;97667.59;;;12.54;52.72
550;BME280;20066;48.764;9.176;2022-12-29T08:13:17;97671.56;;;12.46;53.77
550;BME280;20066;48.764;9.176;2022-12-29T08:15:44;97673.72;;;12.82;51.89
550;BME280;20066;48.764;9.176;2022-12-29T08:18:12;97690.31;;;12.80;52.55
550;BME280;20066;48.764;9.176;2022-12-29T08:20:40;97684.34;;;13.16;51.15
550;BME280;20066;48.764;9.176;2022-12-29T08:23:08;97688.00;;;13.48;50.45
550;BME280;20066;48.764;9.176;2022-12-29T08:25:35;97686.56;;;13.44;50.76
550;BME280;20066;48.764;9.176;2022-12-29T08:28:03;97683.94;;;12.94;52.41
550;BME280;20066;48.764;9.176;2022-12-29T08:30:33;97683.72;;;13.08;51.86
550;BME280;20066;48.764;9.176;2022-12-29T08:33:01;97677.00;;;13.16;52.07
550;BME280;20066;48.764;9.176;2022-12-29T08:35:29;97681.25;;;12.94;51.82
550;BME280;20066;48.764;9.176;2022-12-29T08:37:57;97675.16;;;12.90;52.66
550;BME280;20066;48.764;9.176;2022-12-29T08:40:24;97673.63;;;12.89;52.56
550;BME280;20066;48.764;9.176;2022-12-29T08:42:54;97673.09;;;12.97;52.88
550;BME280;20066;48.764;9.176;2022-12-29T08:45:22;97659.34;;;12.65;53.71
550;BME280;20066;48.764;9.176;2022-12-29T08:47:51;97661.25;;;12.41;54.22
550;BME280;20066;48.764;9.176;2022-12-29T08:50:18;97665.81;;;12.44;54.03
550;BME280;20066;48.764;9.176;2022-12-29T08:52:46;97670.91;;;12.65;52.90
550;BME280;20066;48.764;9.176;2022-12-29T08:55:14;97662.03;;;12.65;53.35
550;BME280;20066;48.764;9.176;2022-12-29T08:57:42;97665.75;;;12.74;52.77
550;BME280;20066;48.764;9.176;2022-12-29T09:00:10;97678.28;;;12.85;52.48
550;BME280;20066;48.764;9.176;2022-12-29T09:02:38;97681.25;;;12.67;53.08
550;BME280;20066;48.764;9.176;2022-12-29T09:05:08;97686.66;;;12.67;52.88
550;BME280;20066;48.764;9.176;2022-12-29T09:07:36;97681.97;;;12.71;53.09
550;BME280;20066;48.764;9.176;2022-12-29T09:10:04;97692.09;;;12.90;52.60
550;BME280;20066;48.764;9.176;2022-12-29T09:12:33;97697.56;;;13.10;51.60
550;BME280;20066;48.764;9.176;2022-12-29T09:15:02;97693.19;;;12.96;51.94
550;BME280;20066;48.764;9.176;2022-12-29T09:17:30;97710.78;;;13.04;51.70
550;BME280;20066;48.764;9.176;2022-12-29T09:20:17;97712.84;;;12.70;52.72
550;BME280;20066;48.764;9.176;2022-12-29T09:22:45;97708.72;;;13.35;51.30
550;BME280;20066;48.764;9.176;2022-12-29T09:25:14;97712.53;;;13.14;51.79
550;BME280;20066;48.764;9.176;2022-12-29T09:27:42;97714.91;;;12.86;52.85
550;BME280;20066;48.764;9.176;2022-12-29T09:30:11;97713.16;;;12.99;52.39
550;BME280;20066;48.764;9.176;2022-12-29T09:32:40;97722.56;;;12.91;52.08
550;BME280;20066;48.764;9.176;2022-12-29T09:35:11;97717.47;;;12.69;52.84
550;BME280;20066;48.764;9.176;2022-12-29T09:37:41;97732.25;;;12.88;52.22
550;BME280;20066;48.764;9.176;2022-12-29T09:40:22;97735.19;;;12.70;53.41
550;BME280;20066;48.764;9.176;2022-12-29T09:43:02;97717.22;;;12.60;53.44
550;BME280;20066;48.764;9.176;2022-12-29T09:45:34;97720.69;;;13.11;51.95
550;BME280;20066;48.764;9.176;2022-12-29T09:48:05;97708.59;;;12.69;53.20
550;BME280;20066;48.764;9.176;2022-12-29T09:50:40;97720.16;;;12.96;52.39
550;BME280;20066;48.764;9.176;2022-12-29T09:53:16;97714.66;;;13.03;52.20
550;BME280;20066;48.764;9.176;2022-12-29T09:55:49;97708.13;;;13.01;52.39
550;BME280;20066;48.764;9.176;2022-12-29T09:58:22;97704.28;;;13.22;52.25
550;BME280;20066;48.764;9.176;2022-12-29T10:00:58;97713.66;;;13.17;51.48
550;BME280;20066;48.764;9.176;2022-12-29T10:03:36;97720.75;;;13.07;52.49
550;BME280;20066;48.764;9.176;2022-12-29T10:06:11;97709.16;;;13.30;51.61
550;BME280;20066;48.764;9.176;2022-12-29T10:08:47;97711.94;;;13.27;52.07
550;BME280;20066;48.764;9.176;2022-12-29T10:11:29;97721.13;;;13.72;50.69
550;BME280;20066;48.764;9.176;2022-12-29T10:14:12;97724.31;;;13.87;50.63
550;BME280;20066;48.764;9.176;2022-12-29T10:16:47;97710.69;;;13.74;50.66
550;BME280;20066;48.764;9.176;2022-12-29T10:19:35;97720.88;;;13.86;50.79
550;BME280;20066;48.764;9.176;2022-12-29T10:22:14;97719.13;;;13.76;50.95
550;BME280;20066;48.764;9.176;2022-12-29T10:24:51;97713.75;;;13.33;52.19
550;BME280;20066;48.764;9.176;2022-12-29T10:27:23;97721.75;;;13.60;51.84
550;BME280;20066;48.764;9.176;2022-12-29T10:29:54;97723.66;;;13.83;51.26
550;BME280;20066;48.764;9.176;2022-12-29T10:32:27;97721.41;;;14.37;50.23
550;BME280;20066;48.764;9.176;2022-12-29T10:35:00;97731.25;;;14.80;48.74
550;BME280;20066;48.764;9.176;2022-12-29T10:37:38;97725.44;;;14.29;50.09
550;BME280;20066;48.764;9.176;2022-12-29T10:40:21;97724.31;;;14.26;50.49
550;BME280;20066;48.764;9.176;2022-12-29T10:42:53;97718.34;;;14.35;50.36
550;BME280;20066;48.764;9.176;2022-12-29T10:45:24;97713.66;;;14.72;48.97
550;BME280;20066;48.764;9.176;2022-12-29T10:47:58;97716.19;;;14.95;48.66
550;BME280;20066;48.764;9.176;2022-12-29T10:50:28;97717.09;;;15.95;46.25
550;BME280;20066;48.764;9.176;2022-12-29T10:52:59;97713.75;;;16.03;46.26
550;BME280;20066;48.764;9.176;2022-12-29T10:55:32;97715.09;;;16.11;45.75
550;BME280;20066;48.764;9.176;2022-12-29T10:58:04;97714.22;;;17.50;42.98
550;BME280;20066;48.764;9.176;2022-12-29T11:00:32;97718.44;;;17.29;42.43
550;BME280;20066;48.764;9.176;2022-12-29T11:03:17;97723.16;;;16.28;44.57
550;BME280;20066;48.764;9.176;2022-12-29T11:05:53;97712.41;;;16.87;43.69
550;BME280;20066;48.764;9.176;2022-12-29T11:08:26;97706.91;;;15.99;46.10
550;BME280;20066;48.764;9.176;2022-12-29T11:11:00;97716.97;;;15.57;46.67
550;BME280;20066;48.764;9.176;2022-12-29T11:13:30;97720.78;;;15.14;47.80
550;BME280;20066;48.764;9.176;2022-12-29T11:16:05;97726.88;;;15.18;47.40
550;BME280;20066;48.764;9.176;2022-12-29T11:18:34;97727.41;;;14.61;49.17
550;BME280;20066;48.764;9.176;2022-12-29T11:21:05;97734.94;;;14.17;50.48
550;BME280;20066;48.764;9.176;2022-12-29T11:23:36;97727.22;;;14.36;49.83
550;BME280;20066;48.764;9.176;2022-12-29T11:26:14;97726.09;;;14.33;51.04
550;BME280;20066;48.764;9.176;2022-12-29T11:28:45;97720.81;;;14.62;49.91
550;BME280;20066;48.764;9.176;2022-12-29T11:31:16;97732.34;;;15.31;48.16
550;BME280;20066;48.764;9.176;2022-12-29T11:33:45;97734.97;;;14.86;49.42
550;BME280;20066;48.764;9.176;2022-12-29T11:36:15;97742.38;;;15.18;48.41
550;BME280;20066;48.764;9.176;2022-12-29T11:38:47;97746.38;;;14.61;50.84
550;BME280;20066;48.764;9.176;2022-12-29T11:41:23;97750.38;;;14.73;51.57
550;BME280;20066;48.764;9.176;2022-12-29T11:43:52;97742.09;;;13.22;55.45
550;BME280;20066;48.764;9.176;2022-12-29T11:46:24;97746.56;;;13.55;56.57
550;BME280;20066;48.764;9.176;2022-12-29T11:48:52;97748.34;;;14.05;56.55
550;BME280;20066;48.764;9.176;2022-12-29T11:51:27;97743.81;;;13.78;56.35
550;BME280;20066;48.764;9.176;2022-12-29T11:53:57;97739.66;;;13.94;56.54
550;BME280;20066;48.764;9.176;2022-12-29T11:56:35;97740.91;;;14.09;56.09
550;BME280;20066;48.764;9.176;2022-12-29T11:59:42;97741.78;;;14.22;55.47
550;BME280;20066;48.764;9.176;2022-12-29T12:02:26;97745.59;;;15.29;53.08
550;BME280;20066;48.764;9.176;2022-12-29T12:05:19;97722.53;;;14.20;54.71
550;BME280;20066;48.764;9.176;2022-12-29T12:07:50;97731.59;;;14.98;53.27
550;BME280;20066;48.764;9.176;2022-12-29T12:10:23;97728.50;;;14.47;53.96
550;BME280;20066;48.764;9.176;2022-12-29T12:12:59;97714.38;;;14.04;55.05
550;BME280;20066;48.764;9.176;2022-12-29T12:15:35;97719.91;;;13.97;55.88
550;BME280;20066;48.764;9.176;2022-12-29T12:18:17;97718.22;;;14.03;55.37
550;BME280;20066;48.764;9.176;2022-12-29T12:20:50;97735.91;;;13.44;56.45
550;BME280;20066;48.764;9.176;2022-12-29T12:23:35;97715.09;;;13.84;54.74
550;BME280;20066;48.764;9.176;2022-12-29T12:26:11;97714.13;;;13.95;55.07
550;BME280;20066;48.764;9.176;2022-12-29T12:28:46;97718.91;;;13.87;55.18
550;BME280;20066;48.764;9.176;2022-12-29T12:31:21;97726.63;;;13.88;55.00
550;BME280;20066;48.764;9.176;2022-12-29T12:33:58;97730.16;;;13.66;55.55
550;BME280;20066;48.764;9.176;2022-12-29T12:36:46;97716.13;;;14.30;54.70
550;BME280;20066;48.764;9.176;2022-12-29T12:39:24;97721.06;;;13.96;56.02
550;BME280;20066;48.764;9.176;2022-12-29T12:42:03;97717.00;;;13.01;59.90
550;BME280;20066;48.764;9.176;2022-12-29T12:44:44;97723.16;;;13.25;59.99
550;BME280;20066;48.764;9.176;2022-12-29T12:47:30;97711.44;;;13.12;61.17
550;BME280;20066;48.764;9.176;2022-12-29T12:50:22;97716.47;;;12.83;62.77
550;BME280;20066;48.764;9.176;2022-12-29T12:53:11;97699.13;;;13.31;61.29
550;BME280;20066;48.764;9.176;2022-12-29T12:55:52;97697.78;;;13.62;59.76
550;BME280;20066;48.764;9.176;2022-12-29T12:58:30;97705.88;;;14.21;58.23
550;BME280;20066;48.764;9.176;2022-12-29T13:01:11;97694.72;;;13.40;60.85
550;BME280;20066;48.764;9.176;2022-12-29T13:03:59;97682.91;;;13.11;61.90
550;BME280;20066;48.764;9.176;2022-12-29T13:06:37;97679.03;;;12.89;62.75
550;BME280;20066;48.764;9.176;2022-12-29T13:09:29;97688.66;;;13.13;62.45
550;BME280;20066;48.764;9.176;2022-12-29T13:12:08;97682.50;;;12.89;63.44
550;BME280;20066;48.764;9.176;2022-12-29T13:14:47;97688.56;;;13.17;62.89
550;BME280;20066;48.764;9.176;2022-12-29T13:17:26;97694.81;;;12.63;63.60
550;BME280;20066;48.764;9.176;2022-12-29T13:20:00;97694.88;;;13.10;61.99
550;BME280;20066;48.764;9.176;2022-12-29T13:22:33;97690.16;;;13.57;59.70
550;BME280;20066;48.764;9.176;2022-12-29T13:25:20;97672.16;;;13.07;61.01
550;BME280;20066;48.764;9.176;2022-12-29T13:27:56;97692.09;;;13.76;59.53
550;BME280;20066;48.764;9.176;2022-12-29T13:30:30;97690.22;;;13.10;61.36
550;BME280;20066;48.764;9.176;2022-12-29T13:33:06;97677.78;;;13.17;61.08
550;BME280;20066;48.764;9.176;2022-12-29T13:36:00;97686.69;;;13.57;60.15
550;BME280;20066;48.764;9.176;2022-12-29T13:38:34;97692.00;;;13.60;60.03
550;BME280;20066;48.764;9.176;2022-12-29T13:41:06;97678.19;;;13.58;60.49
550;BME280;20066;48.764;9.176;2022-12-29T13:43:38;97672.91;;;13.51;60.19
550;BME280;20066;48.764;9.176;2022-12-29T13:46:09;97678.91;;;13.39;60.40
550;BME280;20066;48.764;9.176;2022-12-29T13:48:46;97680.19;;;12.88;61.45
550;BME280;20066;48.764;9.176;2022-12-29T13:51:16;97680.56;;;12.86;63.39
550;BME280;20066;48.764;9.176;2022-12-29T13:54:01;97679.88;;;12.82;63.17
550;BME280;20066;48.764;9.176;2022-12-29T13:56:35;97679.38;;;12.91;63.08
550;BME280;20066;48.764;9.176;2022-12-29T13:59:12;97676.84;;;13.46;61.31